Архив погоды в Кумене

Метеограмма Кумены
Среда, 22 Мая
Время местн. Темп Ветер Видим Явления Облачность нижн/средн/верх Атм. давл. Влжн Точка росы ВНГО R Сост. почвы Tg s
Напр Скр Прв ур.ст ур.м изм
21:00 +12.1° штиль 0 0 20 км - облачно 742 758 -0.3 44% +0.2° более 2.5 км - - - -
18:00 +18° Ю-З 3 7 20 км - переменная облачность 742 758 -1.2 29% -0.2° 1 км - - - -
15:00 +18.1° З 2 5 20 км - переменная облачность 744 759 -1.4 29% 1 км - - - -
12:00 +16.8° З 2 4 26 км - переменная облачность 745 761 -0.8 30% -0.7° - - - - -
09:00 +14.7° Ю-З 1 4 24 км - облачно с прояснениями 746 762 -0.5 31% -2.2° - - - - -
06:00 +6.5° Ю 1 2 35 км - облачно 746 763 -0.5 59% -0.9° - - Влажная (без луж) - -
03:00 штиль 0 0 28 км - ясно 747 763 0 82% -2.7° более 2.5 км - - - -
00:00 +2.8° штиль 0 0 20 км - ясно 747 763 0 72% -1.7° более 2.5 км - - - -
Вторник, 21 Мая
Время местн. Темп Ветер Видим Явления Облачность нижн/средн/верх Атм. давл. Влжн Точка росы ВНГО R Сост. почвы Tg s
Напр Скр Прв ур.ст ур.м изм
21:00 +8.2° Ю-З 1 1 20 км - ясно 747 763 -0.2 44% -3.3° более 2.5 км - - - -
18:00 +14.1° С 3 6 20 км - ясно 747 763 -0.6 29% -3.6° более 2.5 км - - - -
15:00 +14.2° З,С-З 4 8 20 км - переменная облачность 747 763 -0.8 31% -2.5° 1.5 км - - - -
12:00 +12.4° С-З 5 10 20 км - ясно 748 764 -0.5 38% -1.4° более 2.5 км - - - -
09:00 +10.7° С-З 5 9 20 км - переменная облачность 749 765 +0.4 43% -1.2° 1.5 км - - - -
06:00 +2.9° З,С-З 1 2 20 км - переменная облачность 748 765 +0.4 75% -1° более 2.5 км - Влажная (без луж) - -
03:00 -0.4° штиль 0 0 20 км - переменная облачность 748 765 +0.6 81% -3.2° более 2.5 км - - - -
00:00 +1.5° штиль 0 0 20 км - переменная облачность 747 764 +0.5 76% -2.3° - - - - -
Понедельник, 20 Мая
Время местн. Темп Ветер Видим Явления Облачность нижн/средн/верх Атм. давл. Влжн Точка росы ВНГО R Сост. почвы Tg s
Напр Скр Прв ур.ст ур.м изм
21:00 +6.6° С-З 1 2 20 км - переменная облачность 747 763 +0.5 52% -2.5° - - - - -
18:00 +10.7° С-З 5 10 20 км - преимущественно облачно 746 762 0 41% -1.9° 1 км 0 - - -
15:00 +10.4° С-З 5 8 20 км ливневый дождь преимущественно облачно 746 762 +0.2 54% +1.5° 1 км - - - -
12:00 +10.2° С 6 11 35 км небо без изменений {ливневые осадки} облачно с прояснениями 746 762 -0.2 53% +1.1° 1 км - - - -
09:00 +7.3° С-З 5 8 35 км - облачно с прояснениями 746 762 +0.1 69% +1.9° - - - - -
06:00 +3.8° С-З 4 6 30 км - облачно 746 763 +0.3 80% +0.7° 1 км - Влажная (без луж) - -
03:00 +3.1° С-З 3 5 28 км - облачно 746 762 +0.1 79% -0.1° 1 км - - - -
00:00 +3.5° С-З 3 5 10 км - облачно 746 762 +0.2 76% -0.3° 1 км - - - -
Воскресенье, 19 Мая
Время местн. Темп Ветер Видим Явления Облачность нижн/средн/верх Атм. давл. Влжн Точка росы ВНГО R Сост. почвы Tg s
Напр Скр Прв ур.ст ур.м изм
21:00 +3.7° С,С-З 3 5 20 км - облачно 746 762 +0.7 75% -0.3° 1 км - - - -
18:00 +4.7° С,С-З 5 9 22 км - облачно 745 761 +1.2 68% -0.7° 600 м - - - -